Terminal Aerodrome Forecast
Issued by NWS Albuquerque, NM

Home | Current Version | Previous Version | Text Only | Print | Product List | Glossary On
Versions: 1 2 3 4 5 6 7 8 9 10 11 12 13 14 15 16 17 18 19 20 21 22 23 24 25
000
FTUS45 KABQ 012300
TAFABQ
TAF
KABQ 012340Z 0200/0224 19008KT P6SM SCT045 SCT080
     FM020100 10012G18KT P6SM SCT050
     FM021000 13011KT P6SM BKN120
     FM021700 04010KT P6SM BKN040=

USA.gov is the U.S. government's official web portal to all federal, state and local government web resources and services.